^^

Metar (rayon 200 km actualisée toutes les 30 minutes)






LFBU - Brie/Champniers, France
Distance de la station: SSE 07km
Mise à jour: 24/04/2014 10:00
Couvert
Couvert
 Wind from NE
Vent: NE 6 km/h
Température: 11°C
Point de Rosée: 9°C
Humidité: 88%
Baromètre: 1019 hPa
Nuages: Couvert
Visibilité: 10 km
Nuages details: partiellement nuageux 213 m
Couvert 457 m
2014/04/24 08:00 LFBU 240800Z AUTO 05003KT 360V110 9999 SCT007 OVC015 11/09 Q1019
LFBG - Cognac/Chateaubernard, France
Distance de la station: OSO 35km
Mise à jour: 24/04/2014 10:00
Couvert
Couvert
 Wind from ENE
Vent: ENE 9 km/h
Température: 11°C
Point de Rosée: 9°C
Humidité: 88%
Baromètre: 1019 hPa
Nuages: Couvert
Visibilité: 10 km
Nuages details: Couvert 152 m
2014/04/24 08:00 LFBG 240800Z AUTO 06005KT 9999 OVC005 11/09 Q1019
 
LFBL - Limoges/Bellegarde, France
Distance de la station: E 82km
Mise à jour: 24/04/2014 10:00

 Wind from E
Vent: E 7 km/h
Visibilité: 2 km
2014/04/24 08:00 LFBL 240800Z AUTO 08004KT 030V120 2200 1300 R21/1800D R03///// BR VV/// 09/09 Q1019
LFBI - Poitiers/France
Distance de la station: N 93km
Mise à jour: 24/04/2014 10:00
Broulliard
Broulliard
 Wind from variable
Vent: variable 4 km/h
Température: 9°C
Point de Rosée: 9°C
Humidité: 100%
Baromètre: 1019 hPa
Récapitulatifs: Broulliard
Visibilité: 1 km
2014/04/24 08:00 LFBI 240800Z AUTO VRB02KT 1100 R21/2000U BR VV/// 09/09 Q1019
 
LFBH - La Rochelle/France
Distance de la station: ONO 106km
Mise à jour: 24/04/2014 10:00
partiellement nuageux
partiellement nuageux
 Wind from ENE
Vent: ENE 15 km/h
Température: 11°C
Point de Rosée: 10°C
Humidité: 94%
Baromètre: 1019 hPa
Nuages: partiellement nuageux
Visibilité: 10 km
2014/04/24 08:00 LFBH 240800Z AUTO 07008KT 9999 NSC 11/10 Q1019
LFBE - Bergerac/France
Distance de la station: SSE 107km
Mise à jour: 24/04/2014 10:00
Couvert
Couvert
 Wind from E
Vent: E 9 km/h
Température: 11°C
Point de Rosée: 10°C
Humidité: 94%
Baromètre: 1019 hPa
Nuages: Couvert
Visibilité: 10 km
Nuages details: Couvert 183 m
2014/04/24 08:00 LFBE 240800Z AUTO 08005KT 050V110 9999 OVC006 11/10 Q1019
 
LFBD - Bordeaux/France
Distance de la station: SSO 121km
Mise à jour: 24/04/2014 10:00
Orage
Orage
 Wind from ENE
Vent: ENE 11 km/h
Température: 11°C
Point de Rosée: 9°C
Humidité: 88%
Baromètre: 1018 hPa
Nuages: Orage
Visibilité: 10 km
Nuages details: nuageux 183 m
nuageux 2073 m
Couvert 2438 m
2014/04/24 08:00 LFBD 240800Z AUTO 07006KT 030V100 9999 BKN006/// BKN068/// OVC080/// ///TCU 11/09 Q1018
LFRI - La Roche-sur-Yon/France
Distance de la station: NO 156km
Mise à jour: 24/04/2014 10:00
nuageux
nuageux
 Wind from ENE
Vent: ENE 9 km/h
Température: 11°C
Point de Rosée: 10°C
Humidité: 94%
Baromètre: 1019 hPa
Nuages: nuageux
Visibilité: 10 km
Nuages details: nuageux 183 m
nuageux 4877 m
2014/04/24 08:00 LFRI 240800Z AUTO 06005KT 9999 BKN006 BKN160 11/10 Q1019
 
LFBC - Cazaux/France
Distance de la station: SO 167km
Mise à jour: 24/04/2014 10:00
Orage
Orage
 Wind from ENE
Vent: ENE 11 km/h
Température: 11°C
Point de Rosée: 10°C
Humidité: 94%
Baromètre: 1018 hPa
Nuages: Orage
Visibilité: 10 km
Nuages details: Quelques Nuages 152 m
nuageux 1890 m
nuageux 2195 m
2014/04/24 08:00 LFBC 240800Z AUTO 06006KT 9999 FEW005/// BKN062/// BKN072/// ///TCU 11/10 Q1018
LFLX - Chateauroux/France
Distance de la station: NE 174km
Mise à jour: 24/04/2014 10:00
Brouillard ou brume
Brouillard ou brume
 Wind from variable
Vent: variable 6 km/h
Température: 10°C
Point de Rosée: 9°C
Humidité: 94%
Baromètre: 1019 hPa
Récapitulatifs: Brouillard ou brume
Visibilité: 1 km
2014/04/24 08:00 LFLX 240800Z VRB03KT 0900 R21/1300N FG VV/// 10/09 Q1019 BECMG 2000 BR OVC002
 
LFBA - Agen/France
Distance de la station: SSE 179km
Mise à jour: 24/04/2014 10:00
Couvert
Couvert
 Wind from E
Vent: E 13 km/h
Température: 12°C
Point de Rosée: 11°C
Humidité: 94%
Baromètre: 1018 hPa
Nuages: Couvert
Visibilité: 10 km
Nuages details: Couvert 244 m
2014/04/24 08:00 LFBA 240800Z AUTO 10007KT 9999 OVC008 12/11 Q1018